createdAt,value
2018-01-22T00:01:53.903Z,99.70
2018-01-22T00:06:37.256Z,99.40
2018-01-22T00:11:21.433Z,99.40
2018-01-22T00:16:04.817Z,99.40
2018-01-22T00:20:48.206Z,99.40
2018-01-22T00:25:31.529Z,99.30
2018-01-22T00:30:14.886Z,99.60
2018-01-22T00:34:58.214Z,99.60
2018-01-22T00:39:41.585Z,99.60
2018-01-22T00:44:24.919Z,99.50
2018-01-22T00:49:08.254Z,99.90
2018-01-22T00:53:51.624Z,99.90
2018-01-22T00:58:34.950Z,99.90
2018-01-22T01:03:18.281Z,99.90
2018-01-22T01:08:01.620Z,99.90
2018-01-22T01:12:44.962Z,99.90
2018-01-22T01:17:29.683Z,99.80
2018-01-22T01:22:17.019Z,99.90
2018-01-22T01:27:00.370Z,99.90
2018-01-22T01:31:43.705Z,99.70
2018-01-22T01:36:27.058Z,99.60
2018-01-22T01:41:10.365Z,99.60
2018-01-22T01:45:53.692Z,99.50
2018-01-22T01:50:37.047Z,99.50
2018-01-22T01:55:21.203Z,99.80
2018-01-22T02:00:05.369Z,99.80
2018-01-22T02:04:48.980Z,99.80
2018-01-22T02:09:33.343Z,99.90
2018-01-22T02:14:16.862Z,99.90
2018-01-22T02:19:00.264Z,99.90
2018-01-22T02:23:44.408Z,99.90
2018-01-22T02:28:27.770Z,99.90
2018-01-22T02:33:11.453Z,99.70
2018-01-22T02:37:54.787Z,99.40
2018-01-22T02:42:38.239Z,99.20
2018-01-22T02:47:21.582Z,99.30
2018-01-22T02:52:04.914Z,99.20
2018-01-22T02:56:48.258Z,99.10
2018-01-22T03:01:31.601Z,99.00
2018-01-22T03:06:15.307Z,99.00
2018-01-22T03:10:59.404Z,98.80
2018-01-22T03:15:42.747Z,98.80
2018-01-22T03:20:26.727Z,98.50
2018-01-22T03:25:10.054Z,98.40
2018-01-22T03:29:53.383Z,98.60
2018-01-22T03:34:37.006Z,98.50
2018-01-22T03:39:20.331Z,98.50
2018-01-22T03:44:03.642Z,98.60
2018-01-22T03:48:48.487Z,98.60
2018-01-22T03:53:32.187Z,98.60
2018-01-22T03:58:15.583Z,98.50
2018-01-22T04:02:58.922Z,98.50
2018-01-22T04:07:42.595Z,98.60
2018-01-22T04:12:25.945Z,98.60
2018-01-22T04:17:10.119Z,98.30
2018-01-22T04:21:54.211Z,98.20
2018-01-22T04:26:37.588Z,98.20
2018-01-22T04:31:20.902Z,98.40
2018-01-22T04:36:04.236Z,98.00
2018-01-22T04:40:47.555Z,98.00
2018-01-22T04:45:30.912Z,97.60
2018-01-22T04:50:14.242Z,97.10
2018-01-22T04:54:57.567Z,97.00
2018-01-22T04:59:40.968Z,96.50
2018-01-22T05:04:24.303Z,96.20
2018-01-22T05:09:07.621Z,96.20
2018-01-22T05:13:51.047Z,96.30
2018-01-22T05:18:34.349Z,96.20
2018-01-22T05:23:17.684Z,96.10
2018-01-22T05:28:01.777Z,95.10
2018-01-22T05:32:45.144Z,95.10
2018-01-22T05:37:28.462Z,95.50
2018-01-22T05:42:11.827Z,95.40
2018-01-22T05:46:55.107Z,95.00
2018-01-22T05:51:39.207Z,94.60
2018-01-22T05:56:22.522Z,94.60
2018-01-22T06:01:05.865Z,94.90
2018-01-22T06:05:49.185Z,94.90
2018-01-22T06:10:33.318Z,95.10
2018-01-22T06:15:16.602Z,95.10
2018-01-22T06:19:59.967Z,95.50
2018-01-22T06:24:43.304Z,95.90
2018-01-22T06:29:26.950Z,96.30
2018-01-22T06:34:11.101Z,96.90
2018-01-22T06:38:54.458Z,96.90
2018-01-22T06:43:37.773Z,96.80
2018-01-22T06:48:21.105Z,96.60
2018-01-22T06:53:05.307Z,96.60
2018-01-22T06:57:48.843Z,96.20
2018-01-22T07:02:32.182Z,95.90
2018-01-22T07:07:15.530Z,95.20
2018-01-22T07:11:59.202Z,95.20
2018-01-22T07:16:42.501Z,95.30
2018-01-22T07:21:25.838Z,95.00
2018-01-22T07:26:09.698Z,95.00
2018-01-22T07:30:53.119Z,94.90
2018-01-22T07:35:36.502Z,94.60
2018-01-22T07:40:19.815Z,94.20
2018-01-22T07:45:03.101Z,93.80
2018-01-22T07:49:46.517Z,93.70
2018-01-22T07:54:29.952Z,93.40
2018-01-22T07:59:13.313Z,93.10
2018-01-22T08:03:56.630Z,92.90
2018-01-22T08:08:39.965Z,92.50
2018-01-22T08:13:23.320Z,91.90
2018-01-22T08:18:07.582Z,92.10
2018-01-22T08:22:50.935Z,91.80
2018-01-22T08:27:34.374Z,91.70
2018-01-22T08:32:17.728Z,91.50
2018-01-22T08:37:01.113Z,91.50
2018-01-22T08:41:44.445Z,90.90
2018-01-22T08:46:27.818Z,91.00
2018-01-22T08:51:11.151Z,89.90
2018-01-22T08:55:54.511Z,88.30
2018-01-22T09:00:37.838Z,90.40
2018-01-22T09:05:21.188Z,89.90
2018-01-22T09:10:04.639Z,89.10
2018-01-22T09:14:47.978Z,87.70
2018-01-22T09:19:31.281Z,89.30
2018-01-22T09:24:14.702Z,88.00
2018-01-22T09:28:58.049Z,88.20
2018-01-22T09:33:42.152Z,88.80
2018-01-22T09:38:25.430Z,88.80
2018-01-22T09:43:08.770Z,89.90
2018-01-22T09:47:52.898Z,90.00
2018-01-22T09:52:36.257Z,90.00
2018-01-22T09:57:19.587Z,88.40
2018-01-22T10:02:02.942Z,88.30
2018-01-22T10:06:47.042Z,87.40
2018-01-22T10:11:30.354Z,87.40
2018-01-22T10:16:13.683Z,86.30
2018-01-22T10:20:57.005Z,86.90
2018-01-22T10:25:40.340Z,85.20
2018-01-22T10:30:23.676Z,86.00
2018-01-22T10:35:07.011Z,84.20
2018-01-22T10:39:50.426Z,83.90
2018-01-22T10:44:33.787Z,83.20
2018-01-22T10:49:17.204Z,84.30
2018-01-22T10:54:00.554Z,84.20
2018-01-22T10:58:43.938Z,81.30
2018-01-22T11:03:27.280Z,80.80
2018-01-22T11:08:10.592Z,82.00
2018-01-22T11:12:53.903Z,80.20
2018-01-22T11:17:37.244Z,79.70
2018-01-22T11:22:20.596Z,78.70
2018-01-22T11:27:03.886Z,79.70
2018-01-22T11:31:47.249Z,80.00
2018-01-22T11:36:31.388Z,79.70
2018-01-22T11:41:15.431Z,79.60
2018-01-22T11:45:58.781Z,78.90
2018-01-22T11:50:42.196Z,79.90
2018-01-22T11:55:25.515Z,78.10
2018-01-22T12:00:08.887Z,78.30
2018-01-22T12:04:52.224Z,78.50
2018-01-22T12:09:35.538Z,80.30
2018-01-22T12:14:18.927Z,78.70
2018-01-22T12:19:02.193Z,79.50
2018-01-22T12:23:45.559Z,79.20
2018-01-22T12:28:28.880Z,81.10
2018-01-22T12:33:12.988Z,82.90
2018-01-22T12:37:56.306Z,82.30
2018-01-22T12:42:39.613Z,82.70
2018-01-22T12:47:22.978Z,84.20
2018-01-22T12:52:06.328Z,82.70
2018-01-22T12:56:49.634Z,83.50
2018-01-22T13:01:32.992Z,82.90
2018-01-22T13:06:16.318Z,84.10
2018-01-22T13:10:59.643Z,84.50
2018-01-22T13:15:43.746Z,85.10
2018-01-22T13:20:27.099Z,85.10
2018-01-22T13:25:10.410Z,86.60
2018-01-22T13:29:53.744Z,85.40
2018-01-22T13:34:37.099Z,85.80
2018-01-22T13:39:20.441Z,86.40
2018-01-22T13:44:03.751Z,85.70
2018-01-22T13:48:47.095Z,87.30
2018-01-22T13:53:30.391Z,87.10
2018-01-22T13:58:13.746Z,88.20
2018-01-22T14:02:57.076Z,90.30
2018-01-22T14:07:40.424Z,90.30
2018-01-22T14:12:23.812Z,91.10
2018-01-22T14:17:07.145Z,92.20
2018-01-22T14:21:50.478Z,92.60
2018-01-22T14:26:33.826Z,93.80
2018-01-22T14:31:17.172Z,94.20
2018-01-22T14:36:00.753Z,94.70
2018-01-22T14:40:44.063Z,94.50
2018-01-22T14:45:27.400Z,94.80
2018-01-22T14:50:10.760Z,95.30
2018-01-22T14:54:54.073Z,95.40
2018-01-22T14:59:37.409Z,95.60
2018-01-22T15:04:20.750Z,96.00
2018-01-22T15:09:04.098Z,95.80
2018-01-22T15:13:47.450Z,95.90
2018-01-22T15:18:30.794Z,95.70
2018-01-22T15:23:14.156Z,95.90
2018-01-22T15:27:58.820Z,95.40
2018-01-22T15:32:42.148Z,95.80
2018-01-22T15:37:25.487Z,95.80
2018-01-22T15:42:08.940Z,95.40
2018-01-22T15:46:52.297Z,95.00
2018-01-22T15:51:35.639Z,94.90
2018-01-22T15:56:19.002Z,94.80
2018-01-22T16:01:03.057Z,95.00
2018-01-22T16:05:47.361Z,95.20
2018-01-22T16:10:30.697Z,95.20
2018-01-22T16:15:14.030Z,94.80
2018-01-22T16:19:57.403Z,94.70
2018-01-22T16:24:41.603Z,95.00
2018-01-22T16:29:28.886Z,95.10
2018-01-22T16:39:37.529Z,95.00
2018-01-22T16:44:20.912Z,94.90
2018-01-22T16:49:04.468Z,94.80
2018-01-22T16:53:47.921Z,94.50
2018-01-22T16:58:31.299Z,94.40
2018-01-22T17:03:14.764Z,94.20
2018-01-22T17:08:00.880Z,94.30
2018-01-22T17:12:45.275Z,94.20
2018-01-22T17:17:28.616Z,94.20
2018-01-22T17:22:12.327Z,94.40
2018-01-22T17:26:55.641Z,94.70
2018-01-22T17:31:39.070Z,94.80
2018-01-22T17:36:22.442Z,95.40
2018-01-22T17:41:05.790Z,96.00
2018-01-22T17:45:49.142Z,96.50
2018-01-22T17:50:32.490Z,97.00
2018-01-22T17:55:16.591Z,97.10
2018-01-22T17:59:59.941Z,97.30
2018-01-22T18:04:43.285Z,97.50
2018-01-22T18:09:26.651Z,97.60
2018-01-22T18:14:09.988Z,98.00
2018-01-22T18:18:53.351Z,97.90
2018-01-22T18:23:36.653Z,98.00
2018-01-22T18:28:19.972Z,98.20
2018-01-22T18:33:03.289Z,98.40
2018-01-22T18:37:47.419Z,98.40
2018-01-22T18:42:30.763Z,98.40
2018-01-22T18:47:14.370Z,98.60
2018-01-22T18:51:57.696Z,98.60
2018-01-22T18:56:41.071Z,98.60
2018-01-22T19:01:25.162Z,98.50
2018-01-22T19:06:08.479Z,98.10
2018-01-22T19:10:52.367Z,97.50
2018-01-22T19:15:36.489Z,97.90
2018-01-22T19:20:19.824Z,97.80
2018-01-22T19:25:04.020Z,98.10
2018-01-22T19:29:47.361Z,98.00
2018-01-22T19:34:31.456Z,98.50
2018-01-22T19:39:14.766Z,98.50
2018-01-22T19:43:58.883Z,98.80
2018-01-22T19:48:42.292Z,98.80
2018-01-22T19:53:27.784Z,99.20
2018-01-22T19:58:11.127Z,99.20
2018-01-22T20:02:54.454Z,98.60
2018-01-22T20:07:38.548Z,98.50
2018-01-22T20:12:21.904Z,98.50
2018-01-22T20:17:05.272Z,98.80
2018-01-22T20:21:48.630Z,99.40
2018-01-22T20:26:31.963Z,99.60
2018-01-22T20:31:16.025Z,99.20
2018-01-22T20:36:00.106Z,99.30
2018-01-22T20:40:43.495Z,99.30
2018-01-22T20:45:26.889Z,99.20
2018-01-22T20:50:10.315Z,99.10
2018-01-22T20:54:54.402Z,99.70
2018-01-22T20:59:37.797Z,99.70
2018-01-22T21:04:21.122Z,99.60
2018-01-22T21:09:04.458Z,99.50
2018-01-22T21:13:48.020Z,99.90
2018-01-22T21:18:31.356Z,99.90
2018-01-22T21:23:14.704Z,99.90
2018-01-22T21:27:58.848Z,99.90
2018-01-22T21:32:42.147Z,99.90
2018-01-22T21:37:25.476Z,99.90
2018-01-22T21:42:08.804Z,99.90
2018-01-22T21:46:52.158Z,99.90
2018-01-22T21:51:35.503Z,99.90
2018-01-22T21:56:18.810Z,99.90
2018-01-22T22:01:02.201Z,99.90
2018-01-22T22:05:45.698Z,99.90
2018-01-22T22:10:29.076Z,99.90
2018-01-22T22:15:12.512Z,99.90
2018-01-22T22:19:55.841Z,99.90
2018-01-22T22:24:39.189Z,99.90
2018-01-22T22:29:22.547Z,99.90
2018-01-22T22:34:05.926Z,99.90
2018-01-22T22:38:49.266Z,99.90
2018-01-22T22:43:32.625Z,99.90
2018-01-22T22:48:15.974Z,99.90
2018-01-22T22:53:00.174Z,99.90
2018-01-22T22:57:43.561Z,99.90
2018-01-22T23:02:27.672Z,99.90
2018-01-22T23:07:11.041Z,99.90
2018-01-22T23:11:54.527Z,99.90
2018-01-22T23:16:37.846Z,99.90
2018-01-22T23:21:21.635Z,99.90
2018-01-22T23:26:05.089Z,99.90
2018-01-22T23:30:48.423Z,99.90
2018-01-22T23:35:31.814Z,99.90
2018-01-22T23:40:15.164Z,99.90
2018-01-22T23:44:59.262Z,99.90
2018-01-22T23:49:42.668Z,99.90
2018-01-22T23:54:26.798Z,99.90
2018-01-22T23:59:10.190Z,99.90
